sensor_id;sensor_type;location;lat;lon;timestamp;P1;durP1;ratioP1;P2;durP2;ratioP2
62435;SDS011;48480;50.252;18.848;2023-03-17T00:00:03;68.70;;;32.70;;
62435;SDS011;48480;50.252;18.848;2023-03-17T00:02:28;66.50;;;33.20;;
62435;SDS011;48480;50.252;18.848;2023-03-17T00:04:55;63.40;;;32.40;;
62435;SDS011;48480;50.252;18.848;2023-03-17T00:07:20;68.10;;;34.20;;
62435;SDS011;48480;50.252;18.848;2023-03-17T00:09:46;60.00;;;30.10;;
62435;SDS011;48480;50.252;18.848;2023-03-17T00:12:11;69.00;;;33.90;;
62435;SDS011;48480;50.252;18.848;2023-03-17T00:14:38;72.10;;;34.90;;
62435;SDS011;48480;50.252;18.848;2023-03-17T00:17:03;65.40;;;32.70;;
62435;SDS011;48480;50.252;18.848;2023-03-17T00:19:29;68.70;;;33.00;;
62435;SDS011;48480;50.252;18.848;2023-03-17T00:21:58;74.40;;;37.40;;
62435;SDS011;48480;50.252;18.848;2023-03-17T00:24:24;65.20;;;32.90;;
62435;SDS011;48480;50.252;18.848;2023-03-17T00:26:50;64.80;;;31.90;;
62435;SDS011;48480;50.252;18.848;2023-03-17T00:29:15;71.30;;;35.20;;
62435;SDS011;48480;50.252;18.848;2023-03-17T00:31:41;66.80;;;35.00;;
62435;SDS011;48480;50.252;18.848;2023-03-17T00:34:14;74.20;;;35.60;;
62435;SDS011;48480;50.252;18.848;2023-03-17T00:36:42;71.00;;;35.40;;
62435;SDS011;48480;50.252;18.848;2023-03-17T00:39:11;76.80;;;35.80;;
62435;SDS011;48480;50.252;18.848;2023-03-17T00:41:38;74.20;;;36.40;;
62435;SDS011;48480;50.252;18.848;2023-03-17T00:44:04;78.10;;;36.50;;
62435;SDS011;48480;50.252;18.848;2023-03-17T00:46:29;79.90;;;38.60;;
62435;SDS011;48480;50.252;18.848;2023-03-17T00:51:49;85.70;;;40.90;;
62435;SDS011;48480;50.252;18.848;2023-03-17T00:54:15;79.50;;;41.00;;
62435;SDS011;48480;50.252;18.848;2023-03-17T00:56:42;86.50;;;41.50;;
62435;SDS011;48480;50.252;18.848;2023-03-17T00:59:19;78.80;;;38.80;;
62435;SDS011;48480;50.252;18.848;2023-03-17T01:01:49;88.40;;;39.50;;
62435;SDS011;48480;50.252;18.848;2023-03-17T01:04:15;76.70;;;36.70;;
62435;SDS011;48480;50.252;18.848;2023-03-17T01:06:41;66.60;;;35.60;;
62435;SDS011;48480;50.252;18.848;2023-03-17T01:09:07;54.10;;;28.90;;
62435;SDS011;48480;50.252;18.848;2023-03-17T01:11:36;65.70;;;34.40;;
62435;SDS011;48480;50.252;18.848;2023-03-17T01:14:02;67.80;;;34.70;;
62435;SDS011;48480;50.252;18.848;2023-03-17T01:16:28;65.60;;;33.80;;
62435;SDS011;48480;50.252;18.848;2023-03-17T01:18:54;65.60;;;33.60;;
62435;SDS011;48480;50.252;18.848;2023-03-17T01:21:19;70.50;;;33.80;;
62435;SDS011;48480;50.252;18.848;2023-03-17T01:23:44;74.30;;;34.50;;
62435;SDS011;48480;50.252;18.848;2023-03-17T01:26:10;74.30;;;34.00;;
62435;SDS011;48480;50.252;18.848;2023-03-17T01:28:35;74.70;;;37.10;;
62435;SDS011;48480;50.252;18.848;2023-03-17T01:31:01;77.30;;;36.70;;
62435;SDS011;48480;50.252;18.848;2023-03-17T01:33:26;79.10;;;35.70;;
62435;SDS011;48480;50.252;18.848;2023-03-17T01:35:53;81.40;;;37.30;;
62435;SDS011;48480;50.252;18.848;2023-03-17T01:38:18;78.50;;;39.10;;
62435;SDS011;48480;50.252;18.848;2023-03-17T01:40:45;71.80;;;35.00;;
62435;SDS011;48480;50.252;18.848;2023-03-17T01:43:18;82.40;;;39.90;;
62435;SDS011;48480;50.252;18.848;2023-03-17T01:51:29;78.00;;;36.00;;
62435;SDS011;48480;50.252;18.848;2023-03-17T01:54:04;77.30;;;36.20;;
62435;SDS011;48480;50.252;18.848;2023-03-17T01:56:33;72.30;;;35.00;;
62435;SDS011;48480;50.252;18.848;2023-03-17T01:59:00;72.90;;;32.70;;
62435;SDS011;48480;50.252;18.848;2023-03-17T02:01:27;64.90;;;31.20;;
62435;SDS011;48480;50.252;18.848;2023-03-17T02:04:01;67.10;;;33.80;;
62435;SDS011;48480;50.252;18.848;2023-03-17T02:06:27;66.20;;;32.90;;
62435;SDS011;48480;50.252;18.848;2023-03-17T02:08:53;68.80;;;33.00;;
62435;SDS011;48480;50.252;18.848;2023-03-17T02:11:19;70.70;;;33.90;;
62435;SDS011;48480;50.252;18.848;2023-03-17T02:13:46;57.20;;;31.90;;
62435;SDS011;48480;50.252;18.848;2023-03-17T02:16:15;69.20;;;33.30;;
62435;SDS011;48480;50.252;18.848;2023-03-17T02:18:42;74.20;;;34.20;;
62435;SDS011;48480;50.252;18.848;2023-03-17T02:26:46;59.30;;;30.70;;
62435;SDS011;48480;50.252;18.848;2023-03-17T02:29:13;62.90;;;30.80;;
62435;SDS011;48480;50.252;18.848;2023-03-17T02:31:40;56.80;;;29.10;;
62435;SDS011;48480;50.252;18.848;2023-03-17T02:34:07;47.70;;;25.80;;
62435;SDS011;48480;50.252;18.848;2023-03-17T02:36:33;59.20;;;28.90;;
62435;SDS011;48480;50.252;18.848;2023-03-17T02:38:59;65.80;;;33.20;;
62435;SDS011;48480;50.252;18.848;2023-03-17T02:41:25;64.90;;;30.90;;
62435;SDS011;48480;50.252;18.848;2023-03-17T02:43:51;56.30;;;29.40;;
62435;SDS011;48480;50.252;18.848;2023-03-17T02:46:17;59.70;;;28.50;;
62435;SDS011;48480;50.252;18.848;2023-03-17T02:48:43;42.20;;;19.80;;
62435;SDS011;48480;50.252;18.848;2023-03-17T02:51:10;58.00;;;30.40;;
62435;SDS011;48480;50.252;18.848;2023-03-17T02:53:36;57.50;;;30.30;;
62435;SDS011;48480;50.252;18.848;2023-03-17T02:56:02;61.60;;;28.80;;
62435;SDS011;48480;50.252;18.848;2023-03-17T02:58:28;56.80;;;30.10;;
62435;SDS011;48480;50.252;18.848;2023-03-17T03:00:53;51.30;;;27.50;;
62435;SDS011;48480;50.252;18.848;2023-03-17T03:03:18;34.30;;;17.70;;
62435;SDS011;48480;50.252;18.848;2023-03-17T03:05:44;56.50;;;28.10;;
62435;SDS011;48480;50.252;18.848;2023-03-17T03:08:09;43.60;;;22.00;;
62435;SDS011;48480;50.252;18.848;2023-03-17T03:10:35;57.00;;;28.80;;
62435;SDS011;48480;50.252;18.848;2023-03-17T03:13:00;54.70;;;28.20;;
62435;SDS011;48480;50.252;18.848;2023-03-17T03:15:26;55.20;;;29.50;;
62435;SDS011;48480;50.252;18.848;2023-03-17T03:17:51;49.00;;;26.60;;
62435;SDS011;48480;50.252;18.848;2023-03-17T03:20:17;50.90;;;25.50;;
62435;SDS011;48480;50.252;18.848;2023-03-17T03:22:43;54.40;;;28.30;;
62435;SDS011;48480;50.252;18.848;2023-03-17T03:25:08;54.20;;;26.40;;
62435;SDS011;48480;50.252;18.848;2023-03-17T03:27:34;46.90;;;24.80;;
62435;SDS011;48480;50.252;18.848;2023-03-17T03:30:00;57.30;;;28.20;;
62435;SDS011;48480;50.252;18.848;2023-03-17T03:32:25;48.40;;;27.30;;
62435;SDS011;48480;50.252;18.848;2023-03-17T03:34:51;47.70;;;25.60;;
62435;SDS011;48480;50.252;18.848;2023-03-17T03:37:17;62.60;;;29.70;;
62435;SDS011;48480;50.252;18.848;2023-03-17T03:39:43;50.70;;;28.50;;
62435;SDS011;48480;50.252;18.848;2023-03-17T03:42:08;55.40;;;30.00;;
62435;SDS011;48480;50.252;18.848;2023-03-17T03:44:34;57.90;;;28.10;;
62435;SDS011;48480;50.252;18.848;2023-03-17T03:47:00;48.50;;;26.00;;
62435;SDS011;48480;50.252;18.848;2023-03-17T03:49:25;50.20;;;26.70;;
62435;SDS011;48480;50.252;18.848;2023-03-17T03:51:51;47.20;;;25.40;;
62435;SDS011;48480;50.252;18.848;2023-03-17T03:54:16;52.10;;;27.60;;
62435;SDS011;48480;50.252;18.848;2023-03-17T03:56:42;48.00;;;26.20;;
62435;SDS011;48480;50.252;18.848;2023-03-17T03:59:07;51.60;;;26.90;;
62435;SDS011;48480;50.252;18.848;2023-03-17T04:01:33;55.30;;;28.20;;
62435;SDS011;48480;50.252;18.848;2023-03-17T04:03:59;53.70;;;28.80;;
62435;SDS011;48480;50.252;18.848;2023-03-17T04:06:26;50.50;;;28.30;;
62435;SDS011;48480;50.252;18.848;2023-03-17T04:08:51;53.00;;;29.00;;
62435;SDS011;48480;50.252;18.848;2023-03-17T04:11:17;55.40;;;28.60;;
62435;SDS011;48480;50.252;18.848;2023-03-17T04:13:42;58.20;;;28.90;;
62435;SDS011;48480;50.252;18.848;2023-03-17T04:16:08;49.00;;;26.00;;
62435;SDS011;48480;50.252;18.848;2023-03-17T04:18:33;46.50;;;24.30;;
62435;SDS011;48480;50.252;18.848;2023-03-17T04:20:59;42.00;;;22.30;;
62435;SDS011;48480;50.252;18.848;2023-03-17T04:23:25;47.30;;;25.70;;
62435;SDS011;48480;50.252;18.848;2023-03-17T04:25:52;51.80;;;27.00;;
62435;SDS011;48480;50.252;18.848;2023-03-17T04:28:18;55.80;;;27.70;;
62435;SDS011;48480;50.252;18.848;2023-03-17T04:30:44;52.60;;;28.30;;
62435;SDS011;48480;50.252;18.848;2023-03-17T04:33:10;51.20;;;28.10;;
62435;SDS011;48480;50.252;18.848;2023-03-17T04:35:35;35.70;;;19.60;;
62435;SDS011;48480;50.252;18.848;2023-03-17T04:38:01;48.40;;;25.40;;
62435;SDS011;48480;50.252;18.848;2023-03-17T04:40:26;54.00;;;27.20;;
62435;SDS011;48480;50.252;18.848;2023-03-17T04:42:52;37.00;;;20.20;;
62435;SDS011;48480;50.252;18.848;2023-03-17T04:45:18;47.70;;;26.30;;
62435;SDS011;48480;50.252;18.848;2023-03-17T04:47:43;48.90;;;24.90;;
62435;SDS011;48480;50.252;18.848;2023-03-17T04:50:12;50.20;;;25.10;;
62435;SDS011;48480;50.252;18.848;2023-03-17T04:52:38;48.60;;;24.30;;
62435;SDS011;48480;50.252;18.848;2023-03-17T04:55:05;43.10;;;22.80;;
62435;SDS011;48480;50.252;18.848;2023-03-17T04:57:33;47.50;;;25.30;;
62435;SDS011;48480;50.252;18.848;2023-03-17T05:00:00;42.80;;;24.90;;
62435;SDS011;48480;50.252;18.848;2023-03-17T05:02:25;49.80;;;26.60;;
62435;SDS011;48480;50.252;18.848;2023-03-17T05:04:50;51.60;;;25.70;;
62435;SDS011;48480;50.252;18.848;2023-03-17T05:07:16;37.90;;;19.90;;
62435;SDS011;48480;50.252;18.848;2023-03-17T05:09:42;42.50;;;22.90;;
62435;SDS011;48480;50.252;18.848;2023-03-17T05:12:07;36.60;;;21.60;;
62435;SDS011;48480;50.252;18.848;2023-03-17T05:14:34;46.00;;;23.90;;
62435;SDS011;48480;50.252;18.848;2023-03-17T05:17:00;42.00;;;21.70;;
62435;SDS011;48480;50.252;18.848;2023-03-17T05:19:25;44.30;;;22.90;;
62435;SDS011;48480;50.252;18.848;2023-03-17T05:21:51;42.50;;;21.60;;
62435;SDS011;48480;50.252;18.848;2023-03-17T05:24:16;41.00;;;21.40;;
62435;SDS011;48480;50.252;18.848;2023-03-17T05:26:41;35.10;;;19.30;;
62435;SDS011;48480;50.252;18.848;2023-03-17T05:29:07;42.60;;;22.40;;
62435;SDS011;48480;50.252;18.848;2023-03-17T05:31:33;36.70;;;18.40;;
62435;SDS011;48480;50.252;18.848;2023-03-17T05:33:58;29.80;;;17.30;;
62435;SDS011;48480;50.252;18.848;2023-03-17T05:36:24;32.50;;;17.30;;
62435;SDS011;48480;50.252;18.848;2023-03-17T05:38:49;35.70;;;18.90;;
62435;SDS011;48480;50.252;18.848;2023-03-17T05:41:15;24.30;;;13.10;;
62435;SDS011;48480;50.252;18.848;2023-03-17T05:43:40;35.30;;;18.60;;
62435;SDS011;48480;50.252;18.848;2023-03-17T05:46:06;39.20;;;20.40;;
62435;SDS011;48480;50.252;18.848;2023-03-17T05:48:32;38.60;;;20.20;;
62435;SDS011;48480;50.252;18.848;2023-03-17T05:50:57;36.50;;;20.40;;
62435;SDS011;48480;50.252;18.848;2023-03-17T05:53:23;34.50;;;20.00;;
62435;SDS011;48480;50.252;18.848;2023-03-17T05:55:48;27.00;;;15.90;;
62435;SDS011;48480;50.252;18.848;2023-03-17T05:58:14;45.60;;;23.30;;
62435;SDS011;48480;50.252;18.848;2023-03-17T06:00:42;32.70;;;18.60;;
62435;SDS011;48480;50.252;18.848;2023-03-17T06:03:08;35.90;;;18.00;;
62435;SDS011;48480;50.252;18.848;2023-03-17T06:05:34;30.60;;;17.90;;
62435;SDS011;48480;50.252;18.848;2023-03-17T06:07:59;34.20;;;18.90;;
62435;SDS011;48480;50.252;18.848;2023-03-17T06:10:25;38.00;;;20.30;;
62435;SDS011;48480;50.252;18.848;2023-03-17T06:12:51;37.90;;;20.90;;
62435;SDS011;48480;50.252;18.848;2023-03-17T06:15:17;28.60;;;16.60;;
62435;SDS011;48480;50.252;18.848;2023-03-17T06:17:43;37.20;;;20.30;;
62435;SDS011;48480;50.252;18.848;2023-03-17T06:20:08;36.40;;;19.10;;
62435;SDS011;48480;50.252;18.848;2023-03-17T06:22:35;21.00;;;12.00;;
62435;SDS011;48480;50.252;18.848;2023-03-17T06:25:01;32.30;;;18.10;;
62435;SDS011;48480;50.252;18.848;2023-03-17T06:27:27;39.30;;;20.60;;
62435;SDS011;48480;50.252;18.848;2023-03-17T06:29:57;38.20;;;21.90;;
62435;SDS011;48480;50.252;18.848;2023-03-17T06:32:24;42.20;;;20.70;;
62435;SDS011;48480;50.252;18.848;2023-03-17T06:34:50;38.90;;;20.80;;
62435;SDS011;48480;50.252;18.848;2023-03-17T06:37:15;38.60;;;21.20;;
62435;SDS011;48480;50.252;18.848;2023-03-17T06:39:41;35.30;;;18.50;;
62435;SDS011;48480;50.252;18.848;2023-03-17T06:42:08;37.50;;;19.30;;
62435;SDS011;48480;50.252;18.848;2023-03-17T06:44:33;34.20;;;17.70;;
62435;SDS011;48480;50.252;18.848;2023-03-17T06:47:00;33.80;;;19.30;;
62435;SDS011;48480;50.252;18.848;2023-03-17T06:49:26;32.90;;;17.60;;
62435;SDS011;48480;50.252;18.848;2023-03-17T06:51:52;32.70;;;16.90;;
62435;SDS011;48480;50.252;18.848;2023-03-17T06:54:18;36.20;;;17.90;;
62435;SDS011;48480;50.252;18.848;2023-03-17T06:56:45;27.80;;;14.60;;
62435;SDS011;48480;50.252;18.848;2023-03-17T06:59:12;32.50;;;17.30;;
62435;SDS011;48480;50.252;18.848;2023-03-17T07:01:38;34.10;;;17.80;;
62435;SDS011;48480;50.252;18.848;2023-03-17T07:04:04;32.30;;;17.20;;
62435;SDS011;48480;50.252;18.848;2023-03-17T07:06:30;29.00;;;16.80;;
62435;SDS011;48480;50.252;18.848;2023-03-17T07:08:57;35.70;;;17.20;;
62435;SDS011;48480;50.252;18.848;2023-03-17T07:11:23;29.00;;;16.30;;
62435;SDS011;48480;50.252;18.848;2023-03-17T07:13:52;29.10;;;15.70;;
62435;SDS011;48480;50.252;18.848;2023-03-17T07:16:18;26.50;;;14.00;;
62435;SDS011;48480;50.252;18.848;2023-03-17T07:18:45;29.00;;;15.60;;
62435;SDS011;48480;50.252;18.848;2023-03-17T07:21:10;27.90;;;15.00;;
62435;SDS011;48480;50.252;18.848;2023-03-17T07:23:36;27.60;;;15.20;;
62435;SDS011;48480;50.252;18.848;2023-03-17T07:26:02;27.10;;;14.90;;
62435;SDS011;48480;50.252;18.848;2023-03-17T07:28:28;28.90;;;15.40;;
62435;SDS011;48480;50.252;18.848;2023-03-17T07:30:54;27.40;;;14.40;;
62435;SDS011;48480;50.252;18.848;2023-03-17T07:33:22;25.60;;;15.60;;
62435;SDS011;48480;50.252;18.848;2023-03-17T07:35:48;25.80;;;14.00;;
62435;SDS011;48480;50.252;18.848;2023-03-17T07:38:15;24.40;;;13.60;;
62435;SDS011;48480;50.252;18.848;2023-03-17T07:40:45;20.00;;;11.50;;
62435;SDS011;48480;50.252;18.848;2023-03-17T07:43:12;17.70;;;11.90;;
62435;SDS011;48480;50.252;18.848;2023-03-17T07:45:38;22.10;;;12.10;;
62435;SDS011;48480;50.252;18.848;2023-03-17T07:48:04;21.30;;;13.20;;
62435;SDS011;48480;50.252;18.848;2023-03-17T07:50:31;20.20;;;13.40;;
62435;SDS011;48480;50.252;18.848;2023-03-17T07:52:57;21.00;;;13.10;;
62435;SDS011;48480;50.252;18.848;2023-03-17T07:55:23;17.10;;;12.10;;
62435;SDS011;48480;50.252;18.848;2023-03-17T07:57:49;20.80;;;13.70;;
62435;SDS011;48480;50.252;18.848;2023-03-17T08:00:15;20.30;;;13.20;;
62435;SDS011;48480;50.252;18.848;2023-03-17T08:02:41;23.20;;;13.30;;
62435;SDS011;48480;50.252;18.848;2023-03-17T08:05:07;21.70;;;12.70;;
62435;SDS011;48480;50.252;18.848;2023-03-17T08:07:34;18.40;;;11.80;;
62435;SDS011;48480;50.252;18.848;2023-03-17T08:10:02;21.10;;;12.30;;
62435;SDS011;48480;50.252;18.848;2023-03-17T08:12:29;16.20;;;11.70;;
62435;SDS011;48480;50.252;18.848;2023-03-17T08:14:55;22.40;;;12.30;;
62435;SDS011;48480;50.252;18.848;2023-03-17T08:17:20;19.10;;;10.70;;
62435;SDS011;48480;50.252;18.848;2023-03-17T08:19:51;15.20;;;10.20;;
62435;SDS011;48480;50.252;18.848;2023-03-17T08:22:19;18.00;;;10.90;;
62435;SDS011;48480;50.252;18.848;2023-03-17T08:24:45;16.70;;;10.20;;
62435;SDS011;48480;50.252;18.848;2023-03-17T08:27:10;17.40;;;10.50;;
62435;SDS011;48480;50.252;18.848;2023-03-17T08:29:36;17.20;;;10.40;;
62435;SDS011;48480;50.252;18.848;2023-03-17T08:32:02;17.50;;;11.00;;
62435;SDS011;48480;50.252;18.848;2023-03-17T08:34:27;17.10;;;9.00;;
62435;SDS011;48480;50.252;18.848;2023-03-17T08:36:53;14.10;;;9.60;;
62435;SDS011;48480;50.252;18.848;2023-03-17T08:39:18;17.10;;;9.50;;
62435;SDS011;48480;50.252;18.848;2023-03-17T08:41:44;16.00;;;8.80;;
62435;SDS011;48480;50.252;18.848;2023-03-17T08:44:10;14.70;;;9.70;;
62435;SDS011;48480;50.252;18.848;2023-03-17T08:46:37;14.90;;;8.80;;
62435;SDS011;48480;50.252;18.848;2023-03-17T08:49:02;15.90;;;9.60;;
62435;SDS011;48480;50.252;18.848;2023-03-17T08:51:29;15.80;;;9.40;;
62435;SDS011;48480;50.252;18.848;2023-03-17T08:53:56;14.10;;;9.60;;
62435;SDS011;48480;50.252;18.848;2023-03-17T08:56:22;13.40;;;8.70;;
62435;SDS011;48480;50.252;18.848;2023-03-17T08:58:48;16.80;;;10.40;;
62435;SDS011;48480;50.252;18.848;2023-03-17T09:01:15;17.30;;;10.30;;
62435;SDS011;48480;50.252;18.848;2023-03-17T09:03:41;15.40;;;9.30;;
62435;SDS011;48480;50.252;18.848;2023-03-17T09:06:07;17.00;;;9.10;;
62435;SDS011;48480;50.252;18.848;2023-03-17T09:08:35;15.80;;;9.30;;
62435;SDS011;48480;50.252;18.848;2023-03-17T09:11:09;15.80;;;8.60;;
62435;SDS011;48480;50.252;18.848;2023-03-17T09:13:37;14.70;;;10.10;;
62435;SDS011;48480;50.252;18.848;2023-03-17T09:16:03;18.70;;;10.20;;
62435;SDS011;48480;50.252;18.848;2023-03-17T09:18:29;14.00;;;8.80;;
62435;SDS011;48480;50.252;18.848;2023-03-17T09:20:57;16.70;;;9.80;;
62435;SDS011;48480;50.252;18.848;2023-03-17T09:23:22;14.10;;;8.60;;
62435;SDS011;48480;50.252;18.848;2023-03-17T09:25:48;13.80;;;9.30;;
62435;SDS011;48480;50.252;18.848;2023-03-17T09:28:14;13.40;;;8.30;;
62435;SDS011;48480;50.252;18.848;2023-03-17T09:30:40;12.40;;;8.10;;
62435;SDS011;48480;50.252;18.848;2023-03-17T09:33:07;15.70;;;9.30;;
62435;SDS011;48480;50.252;18.848;2023-03-17T09:35:34;14.50;;;8.70;;
62435;SDS011;48480;50.252;18.848;2023-03-17T09:37:59;14.50;;;9.10;;
62435;SDS011;48480;50.252;18.848;2023-03-17T09:51:33;17.30;;;10.00;;
62435;SDS011;48480;50.252;18.848;2023-03-17T09:54:01;19.60;;;11.50;;
62435;SDS011;48480;50.252;18.848;2023-03-17T09:56:29;15.30;;;9.80;;
62435;SDS011;48480;50.252;18.848;2023-03-17T09:58:57;14.30;;;9.20;;
62435;SDS011;48480;50.252;18.848;2023-03-17T10:01:28;14.00;;;8.70;;
62435;SDS011;48480;50.252;18.848;2023-03-17T10:03:58;11.60;;;7.50;;
62435;SDS011;48480;50.252;18.848;2023-03-17T10:09:04;17.60;;;9.70;;
62435;SDS011;48480;50.252;18.848;2023-03-17T10:11:40;13.10;;;8.20;;
62435;SDS011;48480;50.252;18.848;2023-03-17T10:14:10;14.50;;;8.70;;
62435;SDS011;48480;50.252;18.848;2023-03-17T10:19:26;11.90;;;6.90;;
62435;SDS011;48480;50.252;18.848;2023-03-17T10:21:56;13.20;;;7.50;;
62435;SDS011;48480;50.252;18.848;2023-03-17T10:24:28;15.70;;;8.10;;
62435;SDS011;48480;50.252;18.848;2023-03-17T10:26:58;11.20;;;6.10;;
62435;SDS011;48480;50.252;18.848;2023-03-17T10:29:28;13.90;;;7.20;;
62435;SDS011;48480;50.252;18.848;2023-03-17T10:31:56;12.70;;;7.00;;
62435;SDS011;48480;50.252;18.848;2023-03-17T10:34:22;14.00;;;6.90;;
62435;SDS011;48480;50.252;18.848;2023-03-17T10:36:55;11.00;;;6.40;;
62435;SDS011;48480;50.252;18.848;2023-03-17T10:39:25;13.60;;;6.50;;
62435;SDS011;48480;50.252;18.848;2023-03-17T10:42:26;9.70;;;5.70;;
62435;SDS011;48480;50.252;18.848;2023-03-17T10:44:51;10.40;;;5.80;;
62435;SDS011;48480;50.252;18.848;2023-03-17T10:47:30;10.70;;;6.70;;
62435;SDS011;48480;50.252;18.848;2023-03-17T10:50:00;9.40;;;6.40;;
62435;SDS011;48480;50.252;18.848;2023-03-17T10:52:51;11.20;;;6.50;;
62435;SDS011;48480;50.252;18.848;2023-03-17T11:03:47;11.40;;;6.30;;
62435;SDS011;48480;50.252;18.848;2023-03-17T11:06:17;10.30;;;6.40;;
62435;SDS011;48480;50.252;18.848;2023-03-17T11:08:45;12.20;;;6.80;;
62435;SDS011;48480;50.252;18.848;2023-03-17T11:11:30;9.70;;;6.10;;
62435;SDS011;48480;50.252;18.848;2023-03-17T11:14:05;10.00;;;5.90;;
62435;SDS011;48480;50.252;18.848;2023-03-17T11:16:38;10.30;;;6.10;;
62435;SDS011;48480;50.252;18.848;2023-03-17T11:19:28;11.30;;;6.90;;
62435;SDS011;48480;50.252;18.848;2023-03-17T11:25:09;10.00;;;5.90;;
62435;SDS011;48480;50.252;18.848;2023-03-17T11:27:51;9.90;;;6.10;;
62435;SDS011;48480;50.252;18.848;2023-03-17T11:32:58;9.90;;;6.00;;
62435;SDS011;48480;50.252;18.848;2023-03-17T11:35:32;8.40;;;5.10;;
62435;SDS011;48480;50.252;18.848;2023-03-17T11:40:52;10.90;;;6.10;;
62435;SDS011;48480;50.252;18.848;2023-03-17T11:46:15;9.00;;;5.60;;
62435;SDS011;48480;50.252;18.848;2023-03-17T11:49:03;10.50;;;5.80;;
62435;SDS011;48480;50.252;18.848;2023-03-17T11:56:59;11.20;;;6.20;;
62435;SDS011;48480;50.252;18.848;2023-03-17T11:59:30;9.40;;;6.20;;
62435;SDS011;48480;50.252;18.848;2023-03-17T12:07:56;8.00;;;5.70;;
62435;SDS011;48480;50.252;18.848;2023-03-17T12:10:34;10.10;;;6.20;;
62435;SDS011;48480;50.252;18.848;2023-03-17T12:13:22;8.40;;;4.60;;
62435;SDS011;48480;50.252;18.848;2023-03-17T12:15:56;8.10;;;4.70;;
62435;SDS011;48480;50.252;18.848;2023-03-17T12:18:29;7.80;;;4.80;;
62435;SDS011;48480;50.252;18.848;2023-03-17T12:20:59;8.30;;;4.50;;
62435;SDS011;48480;50.252;18.848;2023-03-17T12:23:47;7.50;;;4.70;;
62435;SDS011;48480;50.252;18.848;2023-03-17T12:31:13;11.60;;;6.30;;
62435;SDS011;48480;50.252;18.848;2023-03-17T12:34:07;10.10;;;5.40;;
62435;SDS011;48480;50.252;18.848;2023-03-17T12:36:39;9.50;;;5.00;;
62435;SDS011;48480;50.252;18.848;2023-03-17T12:46:57;9.70;;;4.70;;
62435;SDS011;48480;50.252;18.848;2023-03-17T12:52:12;7.10;;;4.40;;
62435;SDS011;48480;50.252;18.848;2023-03-17T12:54:47;13.60;;;7.80;;
62435;SDS011;48480;50.252;18.848;2023-03-17T12:57:26;7.60;;;4.20;;
62435;SDS011;48480;50.252;18.848;2023-03-17T12:59:58;9.90;;;4.30;;
62435;SDS011;48480;50.252;18.848;2023-03-17T13:02:36;5.50;;;3.30;;
62435;SDS011;48480;50.252;18.848;2023-03-17T13:05:08;5.90;;;4.00;;
62435;SDS011;48480;50.252;18.848;2023-03-17T13:10:34;11.20;;;6.40;;
62435;SDS011;48480;50.252;18.848;2023-03-17T13:13:05;8.20;;;4.80;;
62435;SDS011;48480;50.252;18.848;2023-03-17T13:23:15;11.20;;;5.30;;
62435;SDS011;48480;50.252;18.848;2023-03-17T13:25:51;9.50;;;4.50;;
62435;SDS011;48480;50.252;18.848;2023-03-17T13:28:25;9.20;;;4.20;;
62435;SDS011;48480;50.252;18.848;2023-03-17T13:34:01;5.60;;;3.40;;
62435;SDS011;48480;50.252;18.848;2023-03-17T13:44:57;6.70;;;3.60;;
62435;SDS011;48480;50.252;18.848;2023-03-17T13:47:46;4.70;;;3.30;;
62435;SDS011;48480;50.252;18.848;2023-03-17T13:50:22;8.10;;;4.50;;
62435;SDS011;48480;50.252;18.848;2023-03-17T13:52:55;5.70;;;3.20;;
62435;SDS011;48480;50.252;18.848;2023-03-17T14:00:31;5.80;;;3.80;;
62435;SDS011;48480;50.252;18.848;2023-03-17T14:05:49;11.70;;;6.80;;
62435;SDS011;48480;50.252;18.848;2023-03-17T14:08:20;9.70;;;4.90;;
62435;SDS011;48480;50.252;18.848;2023-03-17T14:11:06;7.40;;;4.80;;
62435;SDS011;48480;50.252;18.848;2023-03-17T14:13:48;6.30;;;3.20;;
62435;SDS011;48480;50.252;18.848;2023-03-17T14:16:28;5.70;;;3.30;;
62435;SDS011;48480;50.252;18.848;2023-03-17T14:19:00;5.30;;;3.30;;
62435;SDS011;48480;50.252;18.848;2023-03-17T14:21:41;6.40;;;3.30;;
62435;SDS011;48480;50.252;18.848;2023-03-17T14:24:23;5.70;;;3.50;;
62435;SDS011;48480;50.252;18.848;2023-03-17T14:26:52;6.00;;;3.80;;
62435;SDS011;48480;50.252;18.848;2023-03-17T14:29:20;8.80;;;3.70;;
62435;SDS011;48480;50.252;18.848;2023-03-17T14:31:51;9.60;;;3.50;;
62435;SDS011;48480;50.252;18.848;2023-03-17T14:34:26;5.50;;;3.20;;
62435;SDS011;48480;50.252;18.848;2023-03-17T14:36:51;7.20;;;4.30;;
62435;SDS011;48480;50.252;18.848;2023-03-17T14:39:23;8.00;;;4.80;;
62435;SDS011;48480;50.252;18.848;2023-03-17T14:42:03;5.70;;;3.70;;
62435;SDS011;48480;50.252;18.848;2023-03-17T14:44:36;7.80;;;3.70;;
62435;SDS011;48480;50.252;18.848;2023-03-17T14:47:03;6.40;;;3.60;;
62435;SDS011;48480;50.252;18.848;2023-03-17T14:49:31;8.10;;;3.70;;
62435;SDS011;48480;50.252;18.848;2023-03-17T14:51:57;5.20;;;3.60;;
62435;SDS011;48480;50.252;18.848;2023-03-17T14:54:29;7.90;;;3.50;;
62435;SDS011;48480;50.252;18.848;2023-03-17T14:57:06;6.00;;;3.50;;
62435;SDS011;48480;50.252;18.848;2023-03-17T14:59:39;6.80;;;3.60;;
62435;SDS011;48480;50.252;18.848;2023-03-17T15:02:15;5.90;;;3.50;;
62435;SDS011;48480;50.252;18.848;2023-03-17T15:04:54;5.60;;;3.10;;
62435;SDS011;48480;50.252;18.848;2023-03-17T15:07:38;9.80;;;4.70;;
62435;SDS011;48480;50.252;18.848;2023-03-17T15:10:16;10.80;;;4.80;;
62435;SDS011;48480;50.252;18.848;2023-03-17T15:12:43;7.20;;;3.70;;
62435;SDS011;48480;50.252;18.848;2023-03-17T15:15:21;5.70;;;3.80;;
62435;SDS011;48480;50.252;18.848;2023-03-17T15:17:50;7.70;;;3.60;;
62435;SDS011;48480;50.252;18.848;2023-03-17T15:20:19;5.60;;;3.30;;
62435;SDS011;48480;50.252;18.848;2023-03-17T15:22:50;7.40;;;3.80;;
62435;SDS011;48480;50.252;18.848;2023-03-17T15:27:57;8.60;;;3.80;;
62435;SDS011;48480;50.252;18.848;2023-03-17T15:30:22;7.30;;;4.00;;
62435;SDS011;48480;50.252;18.848;2023-03-17T15:32:52;6.90;;;4.10;;
62435;SDS011;48480;50.252;18.848;2023-03-17T15:35:23;7.40;;;4.10;;
62435;SDS011;48480;50.252;18.848;2023-03-17T15:37:49;5.90;;;3.60;;
62435;SDS011;48480;50.252;18.848;2023-03-17T15:40:14;8.00;;;3.80;;
62435;SDS011;48480;50.252;18.848;2023-03-17T15:42:40;6.80;;;3.90;;
62435;SDS011;48480;50.252;18.848;2023-03-17T15:45:06;5.20;;;3.50;;
62435;SDS011;48480;50.252;18.848;2023-03-17T15:47:34;8.00;;;4.20;;
62435;SDS011;48480;50.252;18.848;2023-03-17T15:50:09;6.60;;;3.40;;
62435;SDS011;48480;50.252;18.848;2023-03-17T15:52:38;8.10;;;3.50;;
62435;SDS011;48480;50.252;18.848;2023-03-17T15:55:05;9.10;;;3.40;;
62435;SDS011;48480;50.252;18.848;2023-03-17T15:57:38;8.20;;;3.80;;
62435;SDS011;48480;50.252;18.848;2023-03-17T16:00:03;8.10;;;3.40;;
62435;SDS011;48480;50.252;18.848;2023-03-17T16:02:33;7.80;;;3.80;;
62435;SDS011;48480;50.252;18.848;2023-03-17T16:05:03;7.00;;;3.70;;
62435;SDS011;48480;50.252;18.848;2023-03-17T16:07:37;7.30;;;4.60;;
62435;SDS011;48480;50.252;18.848;2023-03-17T16:10:16;10.50;;;5.00;;
62435;SDS011;48480;50.252;18.848;2023-03-17T16:15:14;9.90;;;5.20;;